createdAt,value
2019-02-07T00:02:14.497Z,6.60
2019-02-07T00:04:42.696Z,8.07
2019-02-07T00:07:11.276Z,7.37
2019-02-07T00:09:39.464Z,9.03
2019-02-07T00:12:07.662Z,9.37
2019-02-07T00:14:39.807Z,8.80
2019-02-07T00:17:05.784Z,9.17
2019-02-07T00:19:33.980Z,4.80
2019-02-07T00:22:02.175Z,6.47
2019-02-07T00:24:30.367Z,8.03
2019-02-07T00:26:58.568Z,8.43
2019-02-07T00:29:26.763Z,8.73
2019-02-07T00:31:54.951Z,8.93
2019-02-07T00:34:23.147Z,8.57
2019-02-07T00:36:51.335Z,8.63
2019-02-07T00:39:19.811Z,5.00
2019-02-07T00:41:47.999Z,9.73
2019-02-07T00:44:16.207Z,7.00
2019-02-07T00:46:44.403Z,8.10
2019-02-07T00:49:12.601Z,7.13
2019-02-07T00:51:40.805Z,10.20
2019-02-07T00:54:08.992Z,6.43
2019-02-07T00:56:39.731Z,6.43
2019-02-07T00:59:07.112Z,7.17
2019-02-07T01:01:35.314Z,7.43
2019-02-07T01:04:03.512Z,6.03
2019-02-07T01:06:31.706Z,7.47
2019-02-07T01:08:59.907Z,5.83
2019-02-07T01:11:28.375Z,9.17
2019-02-07T01:13:57.140Z,8.60
2019-02-07T01:16:25.339Z,8.30
2019-02-07T01:18:53.532Z,7.30
2019-02-07T01:21:21.744Z,8.37
2019-02-07T01:23:49.923Z,9.07
2019-02-07T01:26:18.131Z,5.70
2019-02-07T01:28:46.323Z,9.30
2019-02-07T01:31:14.529Z,7.90
2019-02-07T01:33:42.711Z,9.60
2019-02-07T01:36:10.903Z,6.83
2019-02-07T01:38:39.111Z,7.43
2019-02-07T01:41:07.303Z,9.93
2019-02-07T01:43:35.879Z,9.43
2019-02-07T01:46:04.071Z,7.73
2019-02-07T01:48:32.275Z,7.53
2019-02-07T01:51:00.479Z,6.03
2019-02-07T01:53:28.679Z,7.90
2019-02-07T01:55:56.911Z,5.73
2019-02-07T01:58:25.287Z,7.37
2019-02-07T02:00:53.856Z,8.03
2019-02-07T02:03:22.062Z,5.60
2019-02-07T02:05:50.243Z,7.40
2019-02-07T02:08:18.443Z,9.90
2019-02-07T02:10:46.648Z,8.93
2019-02-07T02:13:14.831Z,7.27
2019-02-07T02:15:43.031Z,3.97
2019-02-07T02:18:11.221Z,5.53
2019-02-07T02:20:39.429Z,6.17
2019-02-07T02:23:07.607Z,5.40
2019-02-07T02:25:35.812Z,5.67
2019-02-07T02:28:04.000Z,6.30
2019-02-07T02:30:34.428Z,7.43
2019-02-07T02:33:03.072Z,5.23
2019-02-07T02:35:31.264Z,6.90
2019-02-07T02:37:59.469Z,7.03
2019-02-07T02:40:27.655Z,5.70
2019-02-07T02:42:55.865Z,6.90
2019-02-07T02:45:36.706Z,5.90
2019-02-07T02:47:55.495Z,6.50
2019-02-07T02:50:23.683Z,5.43
2019-02-07T02:52:51.879Z,7.10
2019-02-07T02:55:33.723Z,5.57
2019-02-07T02:58:01.927Z,8.60
2019-02-07T03:00:40.529Z,7.60
2019-02-07T03:03:16.348Z,7.73
2019-02-07T03:06:02.739Z,6.40
2019-02-07T03:08:32.571Z,7.77
2019-02-07T03:11:11.776Z,6.17
2019-02-07T03:13:50.891Z,6.53
2019-02-07T03:16:29.472Z,7.67
2019-02-07T03:19:02.323Z,5.60
2019-02-07T03:21:38.374Z,7.17
2019-02-07T03:24:08.191Z,4.90
2019-02-07T03:26:43.772Z,5.10
2019-02-07T03:29:13.599Z,4.97
2019-02-07T03:32:01.965Z,5.83
2019-02-07T03:34:31.779Z,6.47
2019-02-07T03:37:01.614Z,3.97
2019-02-07T03:39:31.464Z,5.27
2019-02-07T03:42:01.914Z,5.43
2019-02-07T03:44:34.711Z,4.37
2019-02-07T03:47:13.580Z,6.17
2019-02-07T03:49:46.400Z,6.30
2019-02-07T03:52:34.911Z,6.17
2019-02-07T03:55:04.736Z,5.47
2019-02-07T03:57:37.248Z,4.20
2019-02-07T04:00:10.588Z,5.03
2019-02-07T04:02:40.880Z,5.00
2019-02-07T04:05:10.982Z,6.90
2019-02-07T04:07:40.829Z,5.13
2019-02-07T04:10:22.945Z,5.07
2019-02-07T04:13:10.952Z,6.13
2019-02-07T04:15:58.727Z,5.70
2019-02-07T04:18:41.355Z,2.97
2019-02-07T04:21:29.432Z,4.00
2019-02-07T04:24:18.003Z,5.87
2019-02-07T04:26:49.196Z,5.23
2019-02-07T04:29:19.023Z,6.00
2019-02-07T04:31:48.872Z,3.90
2019-02-07T04:34:35.197Z,4.57
2019-02-07T04:37:05.975Z,4.87
2019-02-07T04:39:52.355Z,4.03
2019-02-07T04:42:22.175Z,4.10
2019-02-07T04:44:52.004Z,4.33
2019-02-07T04:47:31.079Z,5.07
2019-02-07T04:50:00.907Z,4.20
2019-02-07T04:52:30.763Z,5.17
2019-02-07T04:55:12.881Z,4.27
2019-02-07T04:57:43.103Z,3.57
2019-02-07T05:00:32.419Z,3.03
2019-02-07T05:03:02.327Z,3.27
2019-02-07T05:05:34.893Z,3.27
2019-02-07T05:08:10.535Z,4.27
2019-02-07T05:10:52.351Z,3.90
2019-02-07T05:13:28.141Z,3.00
2019-02-07T05:16:14.431Z,4.60
2019-02-07T05:18:56.528Z,3.23
2019-02-07T05:21:42.768Z,4.30
2019-02-07T05:24:12.579Z,3.87
2019-02-07T05:26:58.680Z,4.33
2019-02-07T05:29:34.513Z,3.33
2019-02-07T05:32:04.346Z,3.03
2019-02-07T05:34:34.188Z,2.97
2019-02-07T05:37:20.190Z,2.93
2019-02-07T05:39:49.464Z,3.27
2019-02-07T05:42:22.758Z,3.63
2019-02-07T05:44:52.752Z,2.47
2019-02-07T05:47:39.039Z,2.00
2019-02-07T05:50:23.575Z,1.80
2019-02-07T05:53:12.079Z,2.80
2019-02-07T05:55:45.375Z,2.13
2019-02-07T05:58:31.216Z,1.37
2019-02-07T06:01:09.786Z,1.67
2019-02-07T06:03:56.111Z,1.50
2019-02-07T06:06:42.499Z,1.97
2019-02-07T06:09:18.549Z,1.97
2019-02-07T06:12:04.900Z,2.17
2019-02-07T06:14:34.746Z,2.57
2019-02-07T06:17:21.166Z,1.77
2019-02-07T06:19:50.998Z,2.03
2019-02-07T06:22:32.639Z,2.20
2019-02-07T06:25:02.773Z,2.27
2019-02-07T06:27:44.596Z,1.67
2019-02-07T06:30:33.627Z,2.03
2019-02-07T06:33:12.692Z,1.60
2019-02-07T06:35:42.537Z,1.50
2019-02-07T06:38:27.659Z,1.40
2019-02-07T06:41:13.665Z,1.70
2019-02-07T06:43:43.499Z,1.20
2019-02-07T06:46:28.654Z,1.13
2019-02-07T06:49:01.456Z,1.47
2019-02-07T06:51:46.334Z,1.50
2019-02-07T06:54:22.411Z,1.67
2019-02-07T06:57:01.183Z,1.67
2019-02-07T06:59:39.931Z,1.30
2019-02-07T07:02:26.018Z,1.10
2019-02-07T07:05:11.172Z,1.00
2019-02-07T07:07:59.451Z,0.90
2019-02-07T07:10:38.442Z,0.97
2019-02-07T07:13:08.651Z,1.20
2019-02-07T07:15:40.387Z,1.93
2019-02-07T07:18:10.043Z,1.57
2019-02-07T07:20:39.867Z,2.20
2019-02-07T07:23:09.722Z,1.70
2019-02-07T07:25:39.543Z,1.20
2019-02-07T07:28:09.367Z,0.97
2019-02-07T07:30:39.207Z,1.17
2019-02-07T07:33:09.035Z,0.80
2019-02-07T07:35:47.834Z,0.60
2019-02-07T07:38:34.231Z,1.40
2019-02-07T07:41:04.075Z,1.87
2019-02-07T07:43:50.528Z,0.50
2019-02-07T07:46:26.640Z,1.60
2019-02-07T07:49:02.653Z,2.77
2019-02-07T07:51:47.506Z,1.10
2019-02-07T07:54:33.883Z,1.10
2019-02-07T07:57:19.076Z,0.70
2019-02-07T08:00:05.236Z,2.20
2019-02-07T08:02:43.535Z,0.90
2019-02-07T08:05:29.607Z,0.90
2019-02-07T08:08:05.647Z,0.50
2019-02-07T08:10:52.062Z,0.80
2019-02-07T08:13:27.881Z,1.00
2019-02-07T08:16:03.475Z,1.90
2019-02-07T08:18:36.407Z,0.73
2019-02-07T08:21:22.551Z,1.10
2019-02-07T08:24:07.194Z,1.67
2019-02-07T08:26:55.387Z,0.77
2019-02-07T08:29:37.351Z,2.93
2019-02-07T08:32:16.145Z,2.43
2019-02-07T08:35:02.177Z,1.77
2019-02-07T08:37:48.473Z,2.30
2019-02-07T08:40:24.676Z,2.77
2019-02-07T08:42:57.448Z,2.77
2019-02-07T08:45:27.331Z,1.73
2019-02-07T08:47:58.620Z,3.20
2019-02-07T08:50:34.727Z,3.07
2019-02-07T08:53:22.898Z,2.33
2019-02-07T08:55:52.718Z,2.23
2019-02-07T08:58:22.576Z,2.53
2019-02-07T09:01:04.579Z,2.10
2019-02-07T09:03:50.555Z,2.47
2019-02-07T09:06:20.385Z,1.80
2019-02-07T09:09:02.275Z,2.57
2019-02-07T09:11:32.107Z,1.70
2019-02-07T09:14:10.959Z,2.37
2019-02-07T09:16:40.787Z,2.87
2019-02-07T09:19:10.635Z,3.60
2019-02-07T09:21:40.468Z,2.00
2019-02-07T09:24:10.311Z,1.07
2019-02-07T09:26:52.267Z,2.87
2019-02-07T09:29:22.111Z,2.80
2019-02-07T09:32:10.073Z,1.97
2019-02-07T09:34:49.092Z,3.37
2019-02-07T09:37:21.815Z,3.30
2019-02-07T09:39:51.667Z,3.30
2019-02-07T09:42:37.819Z,2.47
2019-02-07T09:45:10.923Z,2.13
2019-02-07T09:47:56.820Z,3.43
2019-02-07T09:50:26.651Z,3.20
2019-02-07T09:52:59.679Z,2.13
2019-02-07T09:55:45.715Z,3.30
2019-02-07T09:58:18.517Z,2.03
2019-02-07T10:01:00.159Z,2.93
2019-02-07T10:03:46.496Z,2.57
2019-02-07T10:06:22.421Z,2.90
2019-02-07T10:09:01.291Z,3.27
2019-02-07T10:11:43.155Z,3.57
2019-02-07T10:14:15.982Z,3.30
2019-02-07T10:16:52.198Z,2.97
2019-02-07T10:19:30.942Z,2.33
2019-02-07T10:22:17.300Z,2.57
2019-02-07T10:24:50.133Z,2.67
2019-02-07T10:27:22.986Z,3.37
2019-02-07T10:29:55.875Z,2.73
2019-02-07T10:32:43.806Z,3.47
2019-02-07T10:35:22.833Z,2.33
2019-02-07T10:37:59.817Z,2.60
2019-02-07T10:40:35.635Z,1.83
2019-02-07T10:43:12.719Z,2.80
2019-02-07T10:45:57.563Z,2.00
2019-02-07T10:48:44.158Z,3.03
2019-02-07T10:51:08.010Z,1.93
2019-02-07T10:53:40.944Z,3.20
2019-02-07T10:56:10.788Z,4.27
2019-02-07T10:58:40.620Z,3.73
2019-02-07T11:01:10.456Z,2.73
2019-02-07T11:03:43.244Z,2.53
2019-02-07T11:06:18.883Z,2.07
2019-02-07T11:09:05.004Z,1.97
2019-02-07T11:11:51.062Z,2.47
2019-02-07T11:14:40.328Z,1.63
2019-02-07T11:17:12.870Z,1.80
2019-02-07T11:19:45.423Z,1.10
2019-02-07T11:22:23.010Z,3.53
2019-02-07T11:25:09.075Z,2.10
2019-02-07T11:27:51.291Z,1.70
2019-02-07T11:30:24.164Z,2.67
2019-02-07T11:32:53.999Z,1.70
2019-02-07T11:35:32.833Z,2.17
2019-02-07T11:38:05.384Z,2.00
2019-02-07T11:40:44.183Z,2.23
2019-02-07T11:43:16.711Z,2.90
2019-02-07T11:45:52.315Z,1.87
2019-02-07T11:48:28.159Z,1.77
2019-02-07T11:51:13.015Z,1.77
2019-02-07T11:53:51.721Z,3.13
2019-02-07T11:56:30.543Z,1.70
2019-02-07T11:59:09.199Z,1.63
2019-02-07T12:01:41.995Z,2.03
2019-02-07T12:04:30.975Z,1.00
2019-02-07T12:07:17.420Z,2.03
2019-02-07T12:09:47.277Z,2.50
2019-02-07T12:12:33.583Z,1.53
2019-02-07T12:15:06.588Z,1.77
2019-02-07T12:17:36.420Z,2.17
2019-02-07T12:20:11.661Z,1.47
2019-02-07T12:22:42.572Z,1.40
2019-02-07T12:25:24.703Z,1.70
2019-02-07T12:28:12.540Z,1.60
2019-02-07T12:30:58.682Z,1.20
2019-02-07T12:33:28.511Z,1.43
2019-02-07T12:35:58.346Z,1.17
2019-02-07T12:38:40.067Z,1.80
2019-02-07T12:41:09.905Z,1.23
2019-02-07T12:43:51.771Z,1.83
2019-02-07T12:46:40.623Z,1.60
2019-02-07T12:49:10.475Z,2.67
2019-02-07T12:51:56.856Z,1.67
2019-02-07T12:54:26.704Z,1.30
2019-02-07T12:57:13.066Z,1.80
2019-02-07T12:59:42.907Z,1.40
2019-02-07T13:02:18.956Z,1.70
2019-02-07T13:05:00.903Z,1.20
2019-02-07T13:07:48.872Z,1.83
2019-02-07T13:10:24.595Z,2.07
2019-02-07T13:13:00.495Z,1.10
2019-02-07T13:15:30.360Z,1.93
2019-02-07T13:18:02.942Z,2.47
2019-02-07T13:20:35.719Z,1.53
2019-02-07T13:23:11.475Z,1.87
2019-02-07T13:25:50.433Z,1.20
2019-02-07T13:28:26.428Z,1.37
2019-02-07T13:31:08.246Z,1.50
2019-02-07T13:33:40.853Z,1.07
2019-02-07T13:36:10.752Z,1.13
2019-02-07T13:38:46.843Z,1.27
2019-02-07T13:41:33.303Z,1.40
2019-02-07T13:44:18.443Z,1.50
2019-02-07T13:46:54.781Z,1.00
2019-02-07T13:49:27.419Z,1.47
2019-02-07T13:52:00.056Z,1.30
2019-02-07T13:54:32.839Z,1.20
2019-02-07T13:57:08.704Z,1.67
2019-02-07T13:59:50.480Z,1.70
2019-02-07T14:02:36.564Z,1.70
2019-02-07T14:05:17.883Z,1.63
2019-02-07T14:07:50.611Z,0.80
2019-02-07T14:10:20.459Z,1.43
2019-02-07T14:12:53.068Z,1.97
2019-02-07T14:16:00.687Z,1.00
2019-02-07T14:18:33.521Z,0.80
2019-02-07T14:21:15.319Z,1.77
2019-02-07T14:23:51.112Z,1.87
2019-02-07T14:26:20.965Z,0.93
2019-02-07T14:29:09.066Z,1.53
2019-02-07T14:31:38.916Z,1.10
2019-02-07T14:34:17.742Z,1.17
2019-02-07T14:37:03.885Z,1.63
2019-02-07T14:39:39.756Z,1.30
2019-02-07T14:42:15.610Z,0.83
2019-02-07T14:44:45.456Z,1.37
2019-02-07T14:47:25.108Z,1.97
2019-02-07T14:49:53.391Z,1.43
2019-02-07T14:52:21.588Z,1.47
2019-02-07T14:54:49.791Z,1.43
2019-02-07T14:57:17.988Z,1.07
2019-02-07T14:59:46.459Z,0.77
2019-02-07T15:02:15.036Z,1.57
2019-02-07T15:04:43.232Z,0.97
2019-02-07T15:07:11.435Z,1.17
2019-02-07T15:09:39.629Z,1.07
2019-02-07T15:12:07.831Z,0.70
2019-02-07T15:14:36.031Z,2.17
2019-02-07T15:17:04.286Z,1.27
2019-02-07T15:19:32.752Z,0.97
2019-02-07T15:22:00.948Z,2.17
2019-02-07T15:24:29.152Z,1.27
2019-02-07T15:26:57.339Z,1.53
2019-02-07T15:29:25.548Z,1.10
2019-02-07T15:31:53.911Z,2.13
2019-02-07T15:34:22.103Z,1.20
2019-02-07T15:36:50.487Z,1.63
2019-02-07T15:39:19.124Z,1.70
2019-02-07T15:41:47.323Z,1.10
2019-02-07T15:44:15.527Z,1.30
2019-02-07T15:46:43.723Z,0.93
2019-02-07T15:49:11.929Z,1.70
2019-02-07T15:51:40.111Z,1.13
2019-02-07T15:54:08.326Z,1.33
2019-02-07T15:56:36.516Z,1.50
2019-02-07T15:59:09.028Z,1.20
2019-02-07T16:01:38.855Z,0.93
2019-02-07T16:04:27.455Z,0.77
2019-02-07T16:06:55.645Z,1.53
2019-02-07T16:09:23.845Z,1.20
2019-02-07T16:11:52.058Z,1.10
2019-02-07T16:14:20.316Z,0.63
2019-02-07T16:16:48.510Z,0.80
2019-02-07T16:19:17.105Z,1.50
2019-02-07T16:21:45.300Z,1.90
2019-02-07T16:24:15.945Z,1.13
2019-02-07T16:26:43.407Z,1.40
2019-02-07T16:29:11.595Z,1.47
2019-02-07T16:31:39.796Z,1.43
2019-02-07T16:34:07.985Z,1.50
2019-02-07T16:36:36.179Z,1.10
2019-02-07T16:39:06.869Z,1.27
2019-02-07T16:41:35.080Z,1.67
2019-02-07T16:44:03.521Z,1.93
2019-02-07T16:46:31.711Z,1.30
2019-02-07T16:48:59.911Z,2.37
2019-02-07T16:51:28.675Z,1.20
2019-02-07T16:53:56.875Z,1.33
2019-02-07T16:56:25.113Z,1.33
2019-02-07T16:58:53.308Z,0.80
2019-02-07T17:01:21.495Z,0.70
2019-02-07T17:03:49.687Z,2.40
2019-02-07T17:06:17.885Z,1.33
2019-02-07T17:08:46.068Z,1.13
2019-02-07T17:11:14.273Z,0.90
2019-02-07T17:13:42.467Z,1.83
2019-02-07T17:16:10.652Z,1.80
2019-02-07T17:18:38.835Z,1.17
2019-02-07T17:21:11.942Z,1.90
2019-02-07T17:23:36.951Z,1.23
2019-02-07T17:26:05.133Z,0.93
2019-02-07T17:28:33.332Z,1.17
2019-02-07T17:31:01.527Z,1.10
2019-02-07T17:33:29.975Z,0.97
2019-02-07T17:35:58.176Z,0.70
2019-02-07T17:38:26.363Z,1.63
2019-02-07T17:40:54.835Z,1.37
2019-02-07T17:43:23.031Z,1.07
2019-02-07T17:45:51.219Z,1.10
2019-02-07T17:48:19.415Z,1.50
2019-02-07T17:50:48.187Z,0.80
2019-02-07T17:53:16.387Z,2.07
2019-02-07T17:55:44.575Z,0.80
2019-02-07T17:58:13.351Z,0.70
2019-02-07T18:00:51.483Z,1.20
2019-02-07T18:03:19.684Z,2.63
2019-02-07T18:05:47.875Z,1.13
2019-02-07T18:08:16.342Z,1.13
2019-02-07T18:10:44.608Z,1.00
2019-02-07T18:13:12.808Z,1.10
2019-02-07T18:15:41.284Z,0.60
2019-02-07T18:18:09.476Z,0.87
2019-02-07T18:20:37.676Z,0.93
2019-02-07T18:23:05.883Z,0.97
2019-02-07T18:25:34.074Z,1.20
2019-02-07T18:28:02.655Z,0.53
2019-02-07T18:30:30.848Z,0.83
2019-02-07T18:32:59.043Z,1.30
2019-02-07T18:35:27.252Z,1.13
2019-02-07T18:37:55.426Z,1.20
2019-02-07T18:40:28.509Z,0.90
2019-02-07T18:42:56.696Z,1.00
2019-02-07T18:45:24.879Z,1.03
2019-02-07T18:47:53.079Z,0.83
2019-02-07T18:50:29.983Z,1.00
2019-02-07T18:52:58.179Z,1.43
2019-02-07T18:55:26.374Z,1.00
2019-02-07T18:57:54.551Z,1.07
2019-02-07T19:00:31.520Z,1.30
2019-02-07T19:02:59.704Z,0.90
2019-02-07T19:05:27.915Z,1.13
2019-02-07T19:07:56.396Z,0.93
2019-02-07T19:10:26.975Z,1.60
2019-02-07T19:12:55.651Z,0.80
2019-02-07T19:15:30.007Z,1.43
2019-02-07T19:17:58.192Z,0.77
2019-02-07T19:20:26.387Z,0.80
2019-02-07T19:22:54.589Z,0.70
2019-02-07T19:25:22.775Z,0.90
2019-02-07T19:27:50.975Z,1.07
2019-02-07T19:30:22.345Z,0.87
2019-02-07T19:32:50.544Z,0.73
2019-02-07T19:35:18.735Z,0.90
2019-02-07T19:37:46.938Z,0.97
2019-02-07T19:40:19.276Z,0.80
2019-02-07T19:42:47.459Z,0.60
2019-02-07T19:45:23.864Z,0.93
2019-02-07T19:47:52.056Z,0.97
2019-02-07T19:50:23.505Z,0.80
2019-02-07T19:52:51.699Z,0.77
2019-02-07T19:55:22.683Z,1.00
2019-02-07T19:58:10.792Z,1.10
2019-02-07T20:00:39.646Z,0.90
2019-02-07T20:03:07.859Z,1.20
2019-02-07T20:05:36.056Z,0.83
2019-02-07T20:08:04.315Z,0.93
2019-02-07T20:10:32.987Z,1.57
2019-02-07T20:13:01.183Z,1.10
2019-02-07T20:15:34.858Z,1.17
2019-02-07T20:18:03.055Z,0.90
2019-02-07T20:20:31.280Z,0.60
2019-02-07T20:22:59.515Z,0.83
2019-02-07T20:25:47.151Z,1.10
2019-02-07T20:28:15.332Z,0.90
2019-02-07T20:30:44.672Z,0.90
2019-02-07T20:33:12.860Z,1.67
2019-02-07T20:35:41.070Z,2.63
2019-02-07T20:38:09.842Z,1.17
2019-02-07T20:40:38.023Z,1.40
2019-02-07T20:43:06.739Z,0.80
2019-02-07T20:45:34.955Z,0.90
2019-02-07T20:48:03.163Z,1.57
2019-02-07T20:50:31.407Z,1.07
2019-02-07T20:52:59.607Z,1.00
2019-02-07T20:55:27.812Z,1.33
2019-02-07T20:57:56.068Z,1.40
2019-02-07T21:00:27.904Z,1.07
2019-02-07T21:02:56.214Z,1.50
2019-02-07T21:05:24.551Z,1.57
2019-02-07T21:07:52.772Z,1.20
2019-02-07T21:10:23.880Z,1.33
2019-02-07T21:12:52.067Z,1.50
2019-02-07T21:15:20.268Z,1.97
2019-02-07T21:17:48.467Z,1.37
2019-02-07T21:20:21.736Z,1.50
2019-02-07T21:22:50.311Z,1.10
2019-02-07T21:25:24.133Z,1.27
2019-02-07T21:27:52.323Z,1.47
2019-02-07T21:30:22.667Z,1.07
2019-02-07T21:32:51.200Z,1.00
2019-02-07T21:35:20.641Z,1.20
2019-02-07T21:37:48.827Z,1.20
2019-02-07T21:40:24.983Z,1.63
2019-02-07T21:42:54.716Z,0.90
2019-02-07T21:45:22.919Z,0.97
2019-02-07T21:47:51.481Z,1.17
2019-02-07T21:50:27.583Z,1.23
2019-02-07T21:52:55.780Z,0.83
2019-02-07T21:55:26.207Z,1.47
2019-02-07T21:57:54.403Z,1.57
2019-02-07T22:00:28.360Z,1.30
2019-02-07T22:02:56.627Z,1.10
2019-02-07T22:05:24.811Z,1.50
2019-02-07T22:07:53.011Z,1.30
2019-02-07T22:10:21.203Z,0.93
2019-02-07T22:12:49.405Z,1.27
2019-02-07T22:15:19.729Z,0.97
2019-02-07T22:17:48.095Z,0.93
2019-02-07T22:20:21.355Z,0.90
2019-02-07T22:23:08.969Z,0.83
2019-02-07T22:25:37.175Z,1.03
2019-02-07T22:28:06.107Z,1.20
2019-02-07T22:30:35.852Z,1.17
2019-02-07T22:33:06.457Z,0.93
2019-02-07T22:35:34.647Z,0.80
2019-02-07T22:38:02.841Z,1.40
2019-02-07T22:40:31.035Z,0.80
2019-02-07T22:43:00.272Z,1.37
2019-02-07T22:45:28.631Z,1.27
2019-02-07T22:47:56.828Z,1.37
2019-02-07T22:50:27.419Z,1.23
2019-02-07T22:52:56.991Z,1.67
2019-02-07T22:55:25.591Z,0.77
2019-02-07T22:57:53.775Z,0.90
2019-02-07T23:00:36.303Z,1.50
2019-02-07T23:03:09.487Z,0.73
2019-02-07T23:05:37.683Z,1.13
2019-02-07T23:08:06.151Z,1.00
2019-02-07T23:10:34.331Z,1.60
2019-02-07T23:13:03.007Z,0.90
2019-02-07T23:15:31.195Z,0.87
2019-02-07T23:17:59.399Z,0.87
2019-02-07T23:20:27.583Z,1.67
2019-02-07T23:22:55.783Z,0.63
2019-02-07T23:25:23.999Z,1.03
2019-02-07T23:27:52.171Z,0.90
2019-02-07T23:30:20.440Z,1.07
2019-02-07T23:32:48.628Z,1.20
2019-02-07T23:35:16.828Z,0.80
2019-02-07T23:37:45.019Z,1.40
2019-02-07T23:40:18.029Z,1.77
2019-02-07T23:42:46.223Z,0.90
2019-02-07T23:45:16.994Z,1.13
2019-02-07T23:47:45.181Z,1.53
2019-02-07T23:50:13.836Z,0.93
2019-02-07T23:52:42.032Z,1.37
2019-02-07T23:55:11.664Z,0.90
2019-02-07T23:57:39.854Z,1.00
